createdAt,value
2017-06-30T22:09:08.520Z,7.03
2017-06-30T22:11:35.161Z,6.03
2017-06-30T22:14:01.795Z,6.73
2017-06-30T22:16:28.491Z,8.43
2017-06-30T22:18:55.155Z,7.67
2017-06-30T22:21:21.823Z,7.33
2017-06-30T22:23:48.482Z,8.93
2017-06-30T22:26:15.142Z,7.73
2017-06-30T22:28:41.804Z,9.90
2017-06-30T22:31:08.458Z,10.73
2017-06-30T22:33:35.107Z,13.70
2017-06-30T22:36:01.806Z,12.60
2017-06-30T22:38:28.487Z,14.20
2017-06-30T22:40:55.147Z,12.93
2017-06-30T22:43:21.816Z,12.33
2017-06-30T22:45:48.470Z,11.53
2017-06-30T22:48:15.150Z,12.37
2017-06-30T22:50:41.814Z,12.73
2017-06-30T22:53:08.468Z,15.30
2017-06-30T22:55:35.139Z,11.90
2017-06-30T22:58:01.796Z,16.33
2017-06-30T23:00:28.468Z,13.13
2017-06-30T23:02:55.443Z,13.00
2017-06-30T23:05:22.174Z,14.00
2017-06-30T23:07:48.860Z,13.83
2017-06-30T23:10:15.504Z,12.00
2017-06-30T23:12:42.212Z,15.37
2017-06-30T23:15:08.905Z,14.33
2017-06-30T23:17:35.567Z,12.43
2017-06-30T23:20:02.291Z,11.40
2017-06-30T23:22:28.966Z,11.93
2017-06-30T23:24:55.661Z,16.00
2017-06-30T23:27:22.344Z,14.07
2017-06-30T23:29:48.991Z,20.30
2017-06-30T23:32:15.635Z,14.23
2017-06-30T23:34:42.336Z,12.73
2017-06-30T23:37:08.995Z,13.83
2017-06-30T23:39:35.659Z,14.57
2017-06-30T23:42:02.348Z,17.40
2017-06-30T23:44:29.008Z,16.90
2017-06-30T23:46:55.666Z,19.20
2017-06-30T23:49:22.339Z,22.13
2017-06-30T23:51:48.989Z,21.47
2017-06-30T23:54:15.627Z,22.63
2017-06-30T23:56:42.288Z,22.50
2017-06-30T23:59:08.968Z,26.60
